Time;durP1;ratioP1;P1;durP2;ratioP2;P2;SDS_P1;SDS_P2;PMS_P1;PMS_P2;Temp;Humidity;BMP_temperature;BMP_pressure;BME280_temperature;BME280_humidity;BME280_pressure;Samples;Min_cycle;Max_cycle;Signal;HPM_P1;HPM_P2
2022/07/30 00:01:54;;;;;;;3.38;2.40;;;20.60;59.10;;;;;;5016266;28;20084;-72
2022/07/30 00:04:21;;;;;;;3.83;2.33;;;20.30;63.50;;;;;;5015847;28;20057;-72
2022/07/30 00:06:48;;;;;;;3.65;2.47;;;20.60;59.20;;;;;;5015554;28;20128;-72
2022/07/30 00:09:14;;;;;;;3.03;2.50;;;20.50;59.10;;;;;;5016157;28;20064;-72
2022/07/30 00:11:41;;;;;;;3.28;2.63;;;20.60;63.00;;;;;;5016195;28;20149;-72
2022/07/30 00:14:08;;;;;;;3.22;2.60;;;20.50;59.10;;;;;;5015648;28;20107;-72
2022/07/30 00:16:36;;;;;;;3.58;2.75;;;20.50;59.10;;;;;;5015913;28;20057;-73
2022/07/30 00:19:03;;;;;;;4.30;2.60;;;20.50;59.10;;;;;;5015809;28;20136;-72
2022/07/30 00:21:30;;;;;;;3.33;2.35;;;20.50;59.10;;;;;;5015662;28;20131;-72
2022/07/30 00:23:56;;;;;;;4.18;2.63;;;20.70;63.20;;;;;;5033253;28;20405;-72
2022/07/30 00:26:23;;;;;;;3.50;2.47;;;20.50;59.10;;;;;;5015746;28;20053;-73
2022/07/30 00:28:50;;;;;;;3.75;2.42;;;21.20;64.40;;;;;;5015605;28;20140;-72
2022/07/30 00:31:20;;;;;;;3.13;2.30;;;20.30;63.70;;;;;;5015606;28;20053;-73
2022/07/30 00:33:48;;;;;;;3.15;2.38;;;20.40;59.00;;;;;;5015588;28;20049;-72
2022/07/30 00:36:15;;;;;;;4.10;2.58;;;20.50;63.70;;;;;;5015602;28;20128;-72
2022/07/30 00:38:41;;;;;;;3.20;2.38;;;20.50;59.00;;;;;;5015511;28;20061;-72
2022/07/30 00:41:08;;;;;;;4.35;2.65;;;21.30;64.60;;;;;;5015514;28;20064;-72
2022/07/30 00:43:35;;;;;;;3.17;2.40;;;20.50;59.00;;;;;;5015403;28;20140;-72
2022/07/30 00:46:02;;;;;;;3.00;2.45;;;20.50;59.00;;;;;;5015228;28;20092;-72
2022/07/30 00:48:28;;;;;;;3.95;2.28;;;20.30;63.60;;;;;;5015489;28;20056;-72
2022/07/30 00:50:56;;;;;;;2.88;2.20;;;20.50;59.00;;;;;;5014384;28;20507;-72
2022/07/30 00:53:23;;;;;;;3.50;2.40;;;20.50;59.00;;;;;;5015224;28;20049;-72
2022/07/30 00:55:50;;;;;;;2.67;2.30;;;20.50;59.00;;;;;;5015404;28;20160;-72
2022/07/30 00:58:16;;;;;;;3.22;2.22;;;20.40;63.30;;;;;;5015334;28;20521;-72
2022/07/30 01:00:44;;;;;;;3.25;2.22;;;20.40;58.90;;;;;;5015144;28;20084;-72
2022/07/30 01:03:10;;;;;;;2.80;2.22;;;20.40;58.90;;;;;;5014811;28;20466;-72
2022/07/30 01:05:37;;;;;;;2.42;2.00;;;20.50;63.90;;;;;;5014690;28;20136;-72
2022/07/30 01:08:05;;;;;;;2.92;2.10;;;19.70;63.20;;;;;;5015144;28;20061;-72
2022/07/30 01:10:32;;;;;;;2.95;2.55;;;20.60;62.40;;;;;;5014814;28;20577;-72
2022/07/30 01:13:00;;;;;;;3.33;2.40;;;20.50;62.80;;;;;;5014682;28;20188;-72
2022/07/30 01:15:27;;;;;;;2.95;2.30;;;20.40;63.20;;;;;;5015051;28;20132;-72
2022/07/30 01:17:56;;;;;;;2.55;1.95;;;20.40;58.80;;;;;;5015138;28;20132;-72
2022/07/30 01:20:23;;;;;;;2.92;2.20;;;20.70;62.10;;;;;;5014671;28;20045;-73
2022/07/30 01:22:55;;;;;;;2.97;2.40;;;20.40;58.80;;;;;;5013801;28;20045;-72
2022/07/30 01:25:32;;;;;;;3.22;2.10;;;20.40;58.70;;;;;;5015179;28;20504;-72
2022/07/30 01:28:02;;;;;;;3.03;2.15;;;20.40;58.70;;;;;;5015005;28;20057;-72
2022/07/30 01:30:30;;;;;;;2.72;2.00;;;21.10;62.20;;;;;;5014693;28;20128;-72
2022/07/30 01:32:57;;;;;;;2.85;2.35;;;20.40;59.30;;;;;;5014123;28;20057;-72
2022/07/30 01:35:24;;;;;;;2.83;2.20;;;20.50;63.80;;;;;;5032427;28;20132;-72
2022/07/30 01:37:51;;;;;;;2.88;2.28;;;20.40;58.70;;;;;;5014814;28;20053;-72
2022/07/30 01:40:18;;;;;;;2.65;2.10;;;20.90;63.10;;;;;;5014903;28;20060;-72
2022/07/30 01:42:45;;;;;;;2.80;2.30;;;20.40;58.70;;;;;;5014101;28;20060;-72
2022/07/30 01:45:13;;;;;;;4.55;2.15;;;20.40;58.60;;;;;;5014367;28;20053;-72
2022/07/30 01:47:40;;;;;;;4.00;1.98;;;20.40;62.70;;;;;;5014564;28;20057;-72
2022/07/30 01:50:09;;;;;;;3.08;2.30;;;20.40;58.60;;;;;;4995023;28;20081;-72
2022/07/30 01:52:36;;;;;;;3.60;2.47;;;19.90;62.90;;;;;;4994953;28;20050;-72
2022/07/30 01:55:04;;;;;;;2.78;2.15;;;20.40;58.60;;;;;;4994830;28;20482;-72
2022/07/30 01:57:30;;;;;;;2.35;2.08;;;19.80;63.50;;;;;;5009476;28;20493;-77
2022/07/30 01:59:59;;;;;;;4.03;2.20;;;20.40;58.60;;;;;;5014060;28;20053;-71
2022/07/30 02:02:27;;;;;;;2.47;2.10;;;20.40;58.60;;;;;;5014035;28;20144;-72
2022/07/30 02:04:54;;;;;;;2.60;2.00;;;20.40;58.50;;;;;;5014048;28;20062;-72
2022/07/30 02:07:24;;;;;;;4.05;2.20;;;20.40;58.50;;;;;;5013706;28;20409;-72
2022/07/30 02:09:55;;;;;;;2.67;2.25;;;20.30;63.30;;;;;;5014615;28;20057;-72
2022/07/30 02:12:29;;;;;;;2.90;2.25;;;20.50;63.00;;;;;;5021095;28;20512;-72
2022/07/30 02:15:00;;;;;;;2.20;1.90;;;20.40;58.50;;;;;;5038465;28;20460;-72
2022/07/30 02:17:29;;;;;;;2.33;1.92;;;20.40;58.50;;;;;;5021605;28;20057;-72
2022/07/30 02:19:56;;;;;;;3.45;2.10;;;20.40;58.50;;;;;;5038726;28;20387;-72
2022/07/30 02:22:24;;;;;;;2.20;1.80;;;20.50;58.60;;;;;;5021376;28;20417;-72
2022/07/30 02:24:51;;;;;;;2.28;1.80;;;20.40;58.50;;;;;;5020869;28;20055;-72
2022/07/30 02:27:20;;;;;;;2.50;1.88;;;20.40;63.90;;;;;;5021081;28;20132;-72
2022/07/30 02:29:46;;;;;;;2.65;2.20;;;20.40;58.50;;;;;;5021254;28;20136;-72
2022/07/30 02:32:15;;;;;;;2.42;1.75;;;20.40;58.40;;;;;;5038749;28;20505;-72
2022/07/30 02:34:43;;;;;;;2.53;1.90;;;20.60;63.50;;;;;;5020542;28;20132;-72
2022/07/30 02:37:11;;;;;;;2.78;1.90;;;20.40;63.70;;;;;;5021043;28;20140;-72
2022/07/30 02:39:38;;;;;;;2.38;1.80;;;19.90;62.50;;;;;;5021142;28;20057;-72
2022/07/30 02:42:05;;;;;;;2.60;1.90;;;20.40;58.50;;;;;;5038737;28;20046;-72
2022/07/30 02:44:31;;;;;;;2.55;1.83;;;20.30;58.40;;;;;;5021005;28;20409;-72
2022/07/30 02:46:58;;;;;;;2.85;2.00;;;20.60;63.50;;;;;;5038539;28;20056;-73
2022/07/30 02:49:25;;;;;;;2.38;1.70;;;20.30;58.40;;;;;;5038460;28;20051;-72
2022/07/30 02:51:53;;;;;;;2.60;1.83;;;20.40;58.50;;;;;;5020789;28;20136;-72
2022/07/30 02:54:20;;;;;;;1.95;1.60;;;20.30;58.40;;;;;;5020838;28;20135;-72
2022/07/30 02:56:49;;;;;;;2.17;1.90;;;20.10;62.50;;;;;;5021273;28;20052;-72
2022/07/30 02:59:16;;;;;;;1.95;1.75;;;21.10;62.60;;;;;;5038728;28;20104;-72
2022/07/30 03:01:43;;;;;;;2.25;1.90;;;20.10;62.10;;;;;;5038186;28;20049;-72
2022/07/30 03:04:10;;;;;;;2.03;1.80;;;20.30;58.40;;;;;;5020226;28;20128;-72
2022/07/30 03:06:36;;;;;;;2.40;1.80;;;20.20;63.40;;;;;;5020879;28;20128;-72
2022/07/30 03:09:05;;;;;;;2.00;1.70;;;20.30;58.40;;;;;;5038534;28;20053;-72
2022/07/30 03:11:31;;;;;;;2.53;1.80;;;20.30;58.40;;;;;;5038196;28;20048;-72
2022/07/30 03:13:58;;;;;;;3.17;1.98;;;20.30;58.40;;;;;;5020755;28;20498;-72
2022/07/30 03:16:25;;;;;;;2.17;1.67;;;20.10;63.20;;;;;;5038573;28;20049;-72
2022/07/30 03:18:51;;;;;;;2.25;1.80;;;20.30;58.40;;;;;;5020606;28;20116;-72
2022/07/30 03:21:18;;;;;;;2.15;1.70;;;20.30;58.40;;;;;;5020178;28;20049;-72
2022/07/30 03:23:45;;;;;;;2.65;1.65;;;20.40;63.00;;;;;;5016529;28;20136;-72
2022/07/30 03:26:13;;;;;;;2.00;1.80;;;20.40;63.80;;;;;;5017649;28;20053;-72
2022/07/30 03:28:40;;;;;;;2.10;1.88;;;20.30;58.40;;;;;;5035605;28;20077;-72
2022/07/30 03:31:07;;;;;;;2.20;1.60;;;20.20;58.40;;;;;;5034799;28;20136;-72
2022/07/30 03:33:34;;;;;;;1.85;1.63;;;20.20;58.40;;;;;;5034640;28;20049;-72
2022/07/30 03:36:01;;;;;;;2.20;1.55;;;20.20;58.40;;;;;;5035147;28;20228;-72
2022/07/30 03:38:28;;;;;;;1.85;1.55;;;20.20;63.50;;;;;;5017539;28;20132;-72
2022/07/30 03:40:54;;;;;;;2.55;1.83;;;20.20;58.40;;;;;;5034990;28;20048;-72
2022/07/30 03:43:22;;;;;;;1.80;1.52;;;20.20;58.40;;;;;;5017163;28;20410;-72
2022/07/30 03:45:49;;;;;;;2.08;1.52;;;20.20;58.40;;;;;;5017461;28;20057;-72
2022/07/30 03:48:16;;;;;;;2.53;1.70;;;20.10;63.20;;;;;;5017143;28;20064;-72
2022/07/30 03:50:42;;;;;;;2.20;1.70;;;20.20;58.40;;;;;;5016955;28;20045;-72
2022/07/30 03:53:09;;;;;;;2.20;2.00;;;20.20;58.40;;;;;;5034514;28;20473;-72
2022/07/30 03:55:36;;;;;;;2.25;1.77;;;20.20;58.40;;;;;;5016609;28;20050;-72
2022/07/30 03:58:03;;;;;;;2.00;1.58;;;20.20;58.40;;;;;;5034706;28;20065;-72
2022/07/30 04:00:31;;;;;;;1.95;1.70;;;19.70;61.70;;;;;;5034565;28;20045;-72
2022/07/30 04:02:58;;;;;;;1.90;1.70;;;20.20;62.90;;;;;;5016638;28;20064;-72
2022/07/30 04:05:25;;;;;;;2.47;1.70;;;20.10;58.40;;;;;;5034929;28;20083;-72
2022/07/30 04:07:51;;;;;;;1.63;1.50;;;20.10;58.40;;;;;;5034635;28;20045;-72
2022/07/30 04:10:18;;;;;;;2.00;1.70;;;20.20;62.90;;;;;;5016717;28;20057;-72
2022/07/30 04:12:45;;;;;;;1.55;1.45;;;20.10;58.30;;;;;;5034555;28;20132;-72
2022/07/30 04:15:12;;;;;;;2.42;1.80;;;20.10;58.40;;;;;;5016545;28;20136;-72
2022/07/30 04:17:41;;;;;;;2.10;1.70;;;20.10;58.30;;;;;;5016717;28;20049;-72
2022/07/30 04:20:12;;;;;;;1.50;1.40;;;20.10;58.40;;;;;;5034242;28;20052;-72
2022/07/30 04:22:39;;;;;;;2.05;1.70;;;20.60;62.60;;;;;;5016742;28;20136;-72
2022/07/30 04:25:06;;;;;;;2.17;1.50;;;20.10;58.40;;;;;;5016172;28;20395;-72
2022/07/30 04:27:33;;;;;;;1.95;1.70;;;20.20;63.40;;;;;;5034473;28;20132;-72
2022/07/30 04:30:00;;;;;;;2.15;1.60;;;20.10;58.30;;;;;;5016266;28;20049;-72
2022/07/30 04:32:28;;;;;;;1.98;1.70;;;20.40;62.90;;;;;;5016114;28;20053;-72
2022/07/30 04:34:56;;;;;;;2.40;1.63;;;20.10;58.40;;;;;;5016085;28;20060;-72
2022/07/30 04:37:24;;;;;;;2.70;1.70;;;20.10;58.30;;;;;;5033875;28;20501;-72
2022/07/30 04:39:53;;;;;;;2.70;1.60;;;20.10;58.30;;;;;;5033854;28;20053;-72
2022/07/30 04:42:20;;;;;;;1.80;1.50;;;18.70;63.00;;;;;;5016389;28;20049;-72
2022/07/30 04:44:47;;;;;;;2.75;1.40;;;20.10;58.30;;;;;;5016154;28;20136;-72
2022/07/30 04:47:13;;;;;;;1.90;1.50;;;19.00;62.30;;;;;;5016427;28;20257;-72
2022/07/30 04:49:40;;;;;;;1.85;1.65;;;20.10;58.30;;;;;;5015519;28;20076;-72
2022/07/30 04:52:08;;;;;;;2.50;1.80;;;20.10;58.30;;;;;;5015037;28;20056;-72
2022/07/30 04:54:37;;;;;;;3.08;1.58;;;20.10;58.30;;;;;;5015129;28;20064;-72
2022/07/30 04:57:04;;;;;;;1.80;1.45;;;21.10;64.40;;;;;;5015463;28;20069;-72
2022/07/30 04:59:31;;;;;;;2.08;1.70;;;20.10;58.30;;;;;;5032563;28;20049;-72
2022/07/30 05:01:58;;;;;;;2.13;1.65;;;20.10;58.30;;;;;;5015267;28;20474;-72
2022/07/30 05:04:25;;;;;;;2.05;1.50;;;20.10;58.30;;;;;;5014855;28;20195;-72
2022/07/30 05:06:52;;;;;;;2.33;1.80;;;20.10;58.20;;;;;;5015128;28;20161;-72
2022/07/30 05:09:20;;;;;;;1.88;1.60;;;19.00;62.00;;;;;;5015096;28;20554;-72
2022/07/30 05:11:50;;;;;;;1.90;1.60;;;20.10;63.50;;;;;;5014941;28;20053;-72
2022/07/30 05:14:17;;;;;;;1.70;1.60;;;20.10;58.20;;;;;;5014412;28;20045;-72
2022/07/30 05:16:44;;;;;;;1.67;1.52;;;20.10;58.20;;;;;;5015097;28;20068;-72
2022/07/30 05:19:11;;;;;;;1.73;1.58;;;19.30;62.40;;;;;;5014871;28;20057;-72
2022/07/30 05:21:37;;;;;;;1.67;1.58;;;20.10;58.20;;;;;;5014835;28;20132;-72
2022/07/30 05:24:05;;;;;;;1.70;1.30;;;20.10;58.20;;;;;;5014688;28;20148;-72
2022/07/30 05:26:33;;;;;;;1.50;1.40;;;20.10;58.20;;;;;;5032337;28;20045;-72
2022/07/30 05:28:59;;;;;;;1.98;1.77;;;20.10;58.20;;;;;;5014577;28;20387;-72
2022/07/30 05:31:26;;;;;;;2.05;1.52;;;20.10;58.20;;;;;;5014267;28;20054;-72
2022/07/30 05:33:53;;;;;;;2.03;1.70;;;20.30;63.00;;;;;;5031922;28;20059;-72
2022/07/30 05:36:20;;;;;;;1.90;1.70;;;20.10;58.10;;;;;;5014710;28;20061;-72
2022/07/30 05:38:47;;;;;;;1.73;1.60;;;20.30;63.40;;;;;;5014744;28;20060;-72
2022/07/30 05:41:13;;;;;;;2.72;1.70;;;20.20;64.10;;;;;;5014663;28;20049;-72
2022/07/30 05:43:41;;;;;;;2.00;1.60;;;20.10;58.10;;;;;;5013801;28;20057;-72
2022/07/30 05:46:08;;;;;;;1.90;1.70;;;20.10;58.10;;;;;;5013600;28;20056;-72
2022/07/30 05:48:35;;;;;;;2.40;1.67;;;20.10;58.10;;;;;;5014499;28;20136;-72
2022/07/30 05:51:02;;;;;;;1.98;1.67;;;20.10;58.10;;;;;;5014323;28;20589;-72
2022/07/30 05:53:29;;;;;;;2.05;1.80;;;19.80;62.50;;;;;;5014007;28;20063;-72
2022/07/30 05:55:55;;;;;;;1.73;1.55;;;19.90;62.50;;;;;;5014466;28;20049;-72
2022/07/30 05:58:22;;;;;;;1.63;1.45;;;20.10;58.10;;;;;;5014683;28;20049;-72
2022/07/30 06:00:50;;;;;;;2.30;1.80;;;20.10;58.10;;;;;;5032543;28;20050;-72
2022/07/30 06:03:17;;;;;;;2.15;1.50;;;20.10;58.10;;;;;;5032369;28;20232;-72
2022/07/30 06:05:44;;;;;;;1.90;1.50;;;20.20;58.00;;;;;;5032634;28;20052;-72
2022/07/30 06:08:10;;;;;;;1.95;1.75;;;20.20;58.00;;;;;;5032261;28;20137;-73
2022/07/30 06:10:37;;;;;;;1.67;1.40;;;20.10;61.70;;;;;;5031595;28;20055;-72
2022/07/30 06:13:04;;;;;;;2.15;1.60;;;20.40;58.00;;;;;;5013878;28;20391;-72
2022/07/30 06:15:30;;;;;;;1.63;1.27;;;21.60;64.30;;;;;;5014587;28;20077;-72
2022/07/30 06:17:58;;;;;;;1.50;1.40;;;20.50;57.80;;;;;;5014174;28;20133;-72
2022/07/30 06:20:25;;;;;;;1.67;1.58;;;20.90;61.20;;;;;;5032102;28;20054;-72
2022/07/30 06:22:52;;;;;;;2.08;1.60;;;20.80;57.60;;;;;;5013727;28;20050;-72
2022/07/30 06:25:19;;;;;;;1.80;1.40;;;20.90;57.50;;;;;;5031181;28;20041;-72
2022/07/30 06:27:46;;;;;;;2.42;1.42;;;21.00;57.30;;;;;;5013489;28;20409;-72
2022/07/30 06:30:13;;;;;;;1.58;1.38;;;21.60;62.70;;;;;;5013481;28;20045;-74
2022/07/30 06:32:39;;;;;;;1.75;1.40;;;21.30;57.10;;;;;;5031571;28;20050;-71
2022/07/30 06:35:08;;;;;;;1.50;1.40;;;21.40;56.90;;;;;;5014171;28;20053;-72
2022/07/30 06:37:35;;;;;;;1.60;1.50;;;21.50;56.70;;;;;;5030384;28;20104;-72
2022/07/30 06:40:02;;;;;;;1.95;1.42;;;21.60;56.50;;;;;;5031699;28;20049;-72
2022/07/30 06:42:29;;;;;;;2.05;1.48;;;21.70;56.50;;;;;;5013313;28;20061;-72
2022/07/30 06:44:55;;;;;;;1.85;1.50;;;21.80;56.30;;;;;;5030353;28;20047;-72
2022/07/30 06:47:25;;;;;;;2.50;1.40;;;21.90;56.20;;;;;;5031294;28;20405;-72
2022/07/30 06:49:51;;;;;;;2.42;1.60;;;22.10;62.00;;;;;;5031170;28;20517;-72
2022/07/30 06:52:19;;;;;;;1.30;1.20;;;22.00;56.10;;;;;;5013236;28;20046;-72
2022/07/30 06:54:47;;;;;;;1.25;1.15;;;22.10;55.90;;;;;;5028122;28;20048;-72
2022/07/30 06:57:13;;;;;;;1.92;1.48;;;21.50;60.90;;;;;;5032934;28;20037;-72
2022/07/30 06:59:40;;;;;;;1.63;1.20;;;22.20;55.80;;;;;;5016859;28;20068;-72
2022/07/30 07:02:07;;;;;;;1.88;1.30;;;22.30;55.80;;;;;;5034670;28;20060;-72
2022/07/30 07:04:35;;;;;;;1.60;1.40;;;22.10;60.50;;;;;;5034578;28;20124;-72
2022/07/30 07:07:02;;;;;;;1.92;1.38;;;22.40;62.00;;;;;;5016668;28;20558;-72
2022/07/30 07:09:30;;;;;;;2.22;1.42;;;22.50;55.60;;;;;;5016338;28;21132;-72
2022/07/30 07:11:57;;;;;;;1.70;1.40;;;22.60;55.50;;;;;;5015580;28;20128;-72
2022/07/30 07:14:25;;;;;;;1.85;1.17;;;22.70;55.60;;;;;;5033943;28;20052;-72
2022/07/30 07:16:52;;;;;;;1.70;1.30;;;24.00;61.10;;;;;;5016697;28;20112;-72
2022/07/30 07:19:19;;;;;;;1.35;1.20;;;22.80;55.50;;;;;;5016678;28;20053;-72
2022/07/30 07:21:45;;;;;;;1.38;1.20;;;22.90;55.50;;;;;;5016607;28;20060;-72
2022/07/30 07:24:12;;;;;;;2.33;1.30;;;22.80;60.10;;;;;;5005358;28;20379;-73
2022/07/30 07:26:40;;;;;;;2.70;1.30;;;23.10;55.30;;;;;;5031889;28;20079;-72
2022/07/30 07:29:07;;;;;;;2.40;1.33;;;23.20;55.20;;;;;;5034769;28;20049;-72
2022/07/30 07:31:33;;;;;;;1.38;1.27;;;23.10;55.10;;;;;;5016686;28;20129;-72
2022/07/30 07:34:00;;;;;;;1.48;1.23;;;23.30;55.00;;;;;;5016428;28;20128;-72
2022/07/30 07:36:27;;;;;;;1.30;1.20;;;23.60;61.50;;;;;;5013077;28;20132;-72
2022/07/30 07:38:54;;;;;;;1.88;1.38;;;23.50;55.00;;;;;;5016812;28;20461;-72
2022/07/30 07:41:20;;;;;;;1.48;1.20;;;23.50;54.80;;;;;;5034239;28;20132;-72
2022/07/30 07:43:48;;;;;;;1.73;1.30;;;23.60;60.20;;;;;;5016842;28;20053;-72
2022/07/30 07:46:16;;;;;;;1.23;1.10;;;23.60;60.70;;;;;;5016953;28;20161;-73
2022/07/30 07:48:43;;;;;;;1.58;1.35;;;24.20;60.20;;;;;;5016929;28;20053;-72
2022/07/30 07:51:09;;;;;;;4.25;1.30;;;23.70;54.70;;;;;;5015418;28;20064;-72
2022/07/30 07:53:36;;;;;;;1.70;1.40;;;23.70;54.60;;;;;;5032712;28;20043;-72
2022/07/30 07:56:03;;;;;;;2.38;1.02;;;23.80;54.60;;;;;;5015876;28;20060;-72
2022/07/30 07:58:30;;;;;;;1.70;1.40;;;23.80;54.60;;;;;;5015851;28;20654;-72
2022/07/30 08:00:58;;;;;;;2.22;1.45;;;23.80;54.50;;;;;;5015857;28;20049;-72
2022/07/30 08:03:24;;;;;;;2.67;1.40;;;23.80;54.40;;;;;;5015982;28;20049;-72
2022/07/30 08:05:51;;;;;;;1.55;1.30;;;23.90;54.50;;;;;;5032088;28;20047;-72
2022/07/30 08:08:18;;;;;;;1.95;1.20;;;24.00;54.50;;;;;;5014668;28;20133;-72
2022/07/30 08:10:45;;;;;;;1.80;1.40;;;24.00;54.50;;;;;;5033076;28;20132;-72
2022/07/30 08:13:11;;;;;;;1.38;1.20;;;24.00;54.40;;;;;;5015000;28;20115;-72
2022/07/30 08:15:38;;;;;;;1.73;1.40;;;24.00;60.80;;;;;;5015541;28;20045;-73
2022/07/30 08:18:06;;;;;;;1.40;1.20;;;24.10;54.50;;;;;;5015287;28;20409;-72
2022/07/30 08:20:34;;;;;;;1.30;1.20;;;24.30;57.30;;;;;;5012436;28;20053;-72
2022/07/30 08:23:01;;;;;;;1.80;1.42;;;24.10;54.40;;;;;;5015296;28;20484;-72
2022/07/30 08:25:28;;;;;;;1.80;1.30;;;24.20;54.40;;;;;;5015303;28;20056;-72
2022/07/30 08:27:54;;;;;;;1.73;1.25;;;24.30;60.10;;;;;;5015374;28;20045;-73
2022/07/30 08:30:21;;;;;;;2.15;1.40;;;24.20;54.30;;;;;;5015318;28;20056;-72
2022/07/30 08:32:48;;;;;;;2.33;1.50;;;24.30;54.30;;;;;;5014484;28;20055;-72
2022/07/30 08:35:16;;;;;;;2.30;1.38;;;24.10;58.90;;;;;;5014647;28;20137;-72
2022/07/30 08:37:43;;;;;;;2.65;1.80;;;24.10;59.00;;;;;;5015206;28;20455;-72
2022/07/30 08:40:10;;;;;;;2.03;1.65;;;24.30;54.20;;;;;;5014760;28;20055;-72
2022/07/30 08:42:38;;;;;;;2.15;1.50;;;24.40;54.20;;;;;;5015025;28;20047;-72
2022/07/30 08:45:06;;;;;;;1.77;1.20;;;24.40;54.20;;;;;;5014114;28;20061;-72
2022/07/30 08:47:33;;;;;;;2.10;1.33;;;24.40;54.20;;;;;;5012845;28;20128;-72
2022/07/30 08:50:03;;;;;;;2.15;1.50;;;24.40;54.20;;;;;;5015325;28;20467;-72
2022/07/30 08:52:33;;;;;;;3.45;1.45;;;24.40;54.20;;;;;;5017381;28;20486;-72
2022/07/30 08:55:00;;;;;;;2.40;1.70;;;24.40;54.20;;;;;;5015060;28;20045;-72
2022/07/30 08:57:26;;;;;;;1.95;1.60;;;24.40;54.20;;;;;;5014745;28;20056;-72
2022/07/30 08:59:53;;;;;;;4.95;1.42;;;24.30;58.50;;;;;;5012984;28;20076;-72
2022/07/30 09:02:20;;;;;;;2.28;1.35;;;24.40;54.20;;;;;;5012444;28;20494;-72
2022/07/30 09:04:47;;;;;;;2.88;1.75;;;24.40;54.20;;;;;;5014568;28;20455;-72
2022/07/30 09:07:13;;;;;;;6.43;1.60;;;24.40;54.40;;;;;;5011417;28;20053;-72
2022/07/30 09:09:42;;;;;;;4.53;1.60;;;24.40;54.40;;;;;;5014267;28;20421;-72
2022/07/30 09:12:36;;;;;;;4.70;1.48;;;24.40;54.40;;;;;;5013636;28;20045;-72
2022/07/30 09:15:05;;;;;;;2.17;1.63;;;24.40;54.40;;;;;;5014250;28;20053;-73
2022/07/30 09:17:46;;;;;;;2.53;1.42;;;23.30;58.10;;;;;;5014614;28;20041;-72
2022/07/30 09:20:12;;;;;;;3.20;1.50;;;24.40;54.50;;;;;;5014222;28;20510;-72
2022/07/30 09:22:42;;;;;;;3.10;1.70;;;24.40;54.40;;;;;;5015065;28;20052;-72
2022/07/30 09:25:10;;;;;;;3.08;1.65;;;24.40;54.40;;;;;;5011005;28;20058;-72
2022/07/30 09:27:47;;;;;;;2.20;1.60;;;24.40;54.40;;;;;;5030555;28;20053;-72
2022/07/30 09:30:14;;;;;;;5.97;1.48;;;24.40;54.50;;;;;;5011063;28;20476;-72
2022/07/30 09:32:47;;;;;;;4.95;1.60;;;24.40;54.50;;;;;;5013520;28;20045;-72
2022/07/30 09:35:15;;;;;;;3.28;1.52;;;23.90;59.00;;;;;;5011444;28;20046;-71
2022/07/30 09:37:42;;;;;;;4.25;1.60;;;24.40;54.50;;;;;;5013764;28;20049;-71
2022/07/30 09:40:17;;;;;;;3.67;1.73;;;24.30;58.80;;;;;;5014408;28;20064;-72
2022/07/30 09:42:44;;;;;;;3.13;1.60;;;24.40;54.70;;;;;;5014249;28;20128;-71
2022/07/30 09:45:12;;;;;;;4.47;1.58;;;24.50;58.90;;;;;;5014419;28;20079;-72
2022/07/30 09:47:40;;;;;;;2.33;1.30;;;24.40;59.80;;;;;;5013883;28;20053;-72
2022/07/30 09:50:08;;;;;;;4.18;1.60;;;24.30;54.60;;;;;;5014381;28;20057;-72
2022/07/30 09:52:35;;;;;;;2.72;1.60;;;24.60;58.50;;;;;;5011299;28;20494;-72
2022/07/30 09:55:02;;;;;;;2.25;1.52;;;24.30;54.60;;;;;;5013937;28;20045;-72
2022/07/30 09:57:30;;;;;;;2.22;1.60;;;24.30;54.60;;;;;;5014336;28;20132;-72
2022/07/30 09:59:57;;;;;;;2.03;1.50;;;24.30;54.60;;;;;;5014337;28;20053;-72
2022/07/30 10:02:30;;;;;;;2.70;1.80;;;24.20;54.50;;;;;;5014524;28;20144;-73
2022/07/30 10:05:08;;;;;;;2.65;1.80;;;24.60;58.50;;;;;;5031858;28;20049;-72
2022/07/30 10:07:35;;;;;;;3.75;1.73;;;24.20;60.00;;;;;;5013892;28;20107;-72
2022/07/30 10:10:02;;;;;;;2.70;1.80;;;24.10;54.60;;;;;;5013692;28;20045;-71
2022/07/30 10:12:30;;;;;;;3.03;1.70;;;24.20;54.70;;;;;;5013791;28;20053;-72
2022/07/30 10:14:57;;;;;;;3.17;1.60;;;24.20;54.70;;;;;;5031375;28;20049;-72
2022/07/30 10:17:24;;;;;;;1.98;1.58;;;24.10;54.70;;;;;;5014433;28;20502;-72
2022/07/30 10:19:51;;;;;;;3.10;2.03;;;22.90;58.60;;;;;;5013609;28;20057;-71
2022/07/30 10:22:18;;;;;;;3.20;1.80;;;25.20;59.10;;;;;;5031527;28;20577;-72
2022/07/30 10:24:45;;;;;;;2.88;1.98;;;24.20;54.80;;;;;;5013946;28;20473;-72
2022/07/30 10:27:11;;;;;;;2.65;1.60;;;24.10;54.70;;;;;;5014023;28;20133;-71
2022/07/30 10:29:40;;;;;;;2.85;1.70;;;22.90;59.10;;;;;;5031359;28;20044;-72
2022/07/30 10:32:07;;;;;;;3.08;2.15;;;23.10;59.00;;;;;;5015301;28;20052;-72
2022/07/30 10:34:34;;;;;;;3.28;1.73;;;24.10;54.80;;;;;;5014861;28;20050;-72
2022/07/30 10:37:05;;;;;;;3.58;1.80;;;24.50;59.80;;;;;;5018243;28;20057;-72
2022/07/30 10:39:35;;;;;;;2.88;1.80;;;24.40;55.00;;;;;;5018072;28;20084;-72
2022/07/30 10:42:09;;;;;;;3.67;1.88;;;25.40;59.30;;;;;;5035277;28;20124;-72
2022/07/30 10:44:47;;;;;;;2.38;1.80;;;24.10;54.80;;;;;;5017390;28;20049;-73
2022/07/30 10:47:15;;;;;;;2.78;1.70;;;24.10;54.80;;;;;;5017399;28;20116;-73
2022/07/30 10:49:41;;;;;;;2.78;1.85;;;24.10;55.50;;;;;;5019301;28;20406;-73
2022/07/30 10:52:08;;;;;;;2.88;1.70;;;24.10;58.80;;;;;;5017505;28;20412;-73
2022/07/30 10:54:36;;;;;;;2.33;1.60;;;24.10;54.90;;;;;;5016807;28;20421;-71
2022/07/30 10:57:04;;;;;;;2.55;1.73;;;24.10;54.90;;;;;;5014413;28;20081;-72
2022/07/30 10:59:43;;;;;;;2.75;1.90;;;24.20;59.00;;;;;;5014174;28;20058;-71
2022/07/30 11:02:09;;;;;;;3.17;2.00;;;24.90;59.90;;;;;;5016723;28;20094;-71
2022/07/30 11:04:36;;;;;;;2.30;1.70;;;24.10;54.90;;;;;;5033790;28;20068;-71
2022/07/30 11:07:30;;;;;;;2.75;1.70;;;24.20;58.90;;;;;;5024805;28;20168;-72
2022/07/30 11:09:59;;;;;;;3.70;2.10;;;24.10;54.90;;;;;;5017506;28;20134;-72
2022/07/30 11:12:54;;;;;;;2.65;1.80;;;24.10;55.00;;;;;;5017179;28;20506;-72
2022/07/30 11:15:22;;;;;;;;;;;24.10;55.00;;;;;;5005449;28;20152;-72
2022/07/30 11:18:00;;;;;;;3.67;2.03;;;24.00;55.00;;;;;;5017557;28;19920;-72
2022/07/30 11:20:27;;;;;;;3.65;1.85;;;23.90;57.40;;;;;;4997579;28;20054;-73
2022/07/30 11:22:54;;;;;;;4.63;2.20;;;24.10;59.50;;;;;;4997504;28;20569;-72
2022/07/30 11:25:38;;;;;;;2.45;2.00;;;24.00;55.00;;;;;;4997653;28;20060;-72
2022/07/30 11:28:05;;;;;;;3.33;2.10;;;24.10;55.00;;;;;;5015182;28;20050;-73
2022/07/30 11:30:34;;;;;;;3.25;2.03;;;24.10;57.70;;;;;;4997531;28;20132;-72
2022/07/30 11:33:24;;;;;;;2.38;2.00;;;24.00;55.00;;;;;;4996700;28;20054;-72
2022/07/30 11:36:07;;;;;;;4.22;1.98;;;24.00;55.10;;;;;;4997404;28;20061;-72
2022/07/30 11:38:57;;;;;;;2.55;1.92;;;24.10;59.90;;;;;;4997223;28;20145;-72
2022/07/30 11:41:24;;;;;;;4.90;2.10;;;24.00;55.10;;;;;;5014668;28;20085;-72
2022/07/30 11:44:23;;;;;;;3.20;2.15;;;23.90;59.90;;;;;;5013172;28;20050;-72
2022/07/30 11:46:51;;;;;;;3.65;1.90;;;24.10;59.60;;;;;;5000046;28;20049;-72
2022/07/30 11:49:18;;;;;;;2.65;2.00;;;24.20;58.60;;;;;;5016407;28;20062;-72
2022/07/30 11:51:46;;;;;;;2.90;2.00;;;24.10;55.10;;;;;;5033897;28;20083;-72
2022/07/30 11:54:13;;;;;;;3.45;1.90;;;24.10;55.10;;;;;;5016156;28;20137;-72
2022/07/30 11:56:48;;;;;;;3.35;2.00;;;24.10;55.10;;;;;;5033619;28;20191;-72
2022/07/30 11:59:14;;;;;;;2.78;1.95;;;24.10;55.10;;;;;;5032997;28;20064;-72
2022/07/30 12:01:42;;;;;;;2.63;1.88;;;24.10;55.10;;;;;;5033929;28;20056;-72
2022/07/30 12:04:10;;;;;;;3.13;1.90;;;24.20;55.10;;;;;;5031572;28;20116;-73
2022/07/30 12:06:43;;;;;;;3.03;1.90;;;24.20;55.10;;;;;;5033451;28;20136;-72
2022/07/30 12:09:12;;;;;;;3.50;2.15;;;24.20;55.10;;;;;;4995739;28;20528;-72
2022/07/30 12:11:39;;;;;;;3.20;2.00;;;24.20;55.10;;;;;;4996033;28;20124;-72
2022/07/30 12:14:06;;;;;;;4.28;2.00;;;24.20;55.10;;;;;;5030973;28;20049;-72
2022/07/30 12:16:33;;;;;;;3.22;1.95;;;24.30;59.70;;;;;;5031641;28;20137;-72
2022/07/30 12:19:14;;;;;;;3.03;2.13;;;24.20;55.10;;;;;;5031672;28;20229;-72
2022/07/30 12:21:42;;;;;;;3.13;2.42;;;24.20;55.10;;;;;;5014526;28;20049;-72
2022/07/30 12:24:10;;;;;;;3.58;2.13;;;24.20;55.20;;;;;;5012252;28;20045;-73
2022/07/30 12:26:36;;;;;;;4.30;2.22;;;24.20;55.20;;;;;;5009915;28;20402;-72
2022/07/30 12:29:04;;;;;;;4.50;2.03;;;24.10;55.20;;;;;;5030849;28;20049;-72
2022/07/30 12:31:32;;;;;;;2.30;1.95;;;24.10;55.20;;;;;;5015977;28;20073;-72
2022/07/30 12:33:59;;;;;;;3.40;2.10;;;24.30;55.40;;;;;;5015734;28;20050;-72
2022/07/30 12:36:31;;;;;;;10.68;3.38;;;24.00;59.50;;;;;;5032372;28;20506;-72
2022/07/30 12:38:58;;;;;;;11.27;3.67;;;24.10;55.40;;;;;;5026214;28;20553;-72
2022/07/30 12:41:39;;;;;;;18.30;4.07;;;24.10;55.50;;;;;;5033311;28;20067;-72
2022/07/30 12:44:06;;;;;;;20.98;4.50;;;24.10;55.50;;;;;;5015295;28;20410;-72
2022/07/30 12:46:37;;;;;;;18.70;4.25;;;24.10;55.50;;;;;;5015360;28;20049;-75
2022/07/30 12:49:05;;;;;;;12.88;4.10;;;24.10;55.50;;;;;;5014763;28;20050;-73
2022/07/30 12:51:36;;;;;;;12.45;3.85;;;24.10;55.50;;;;;;5015079;28;20057;-72
2022/07/30 12:54:14;;;;;;;11.02;3.63;;;24.30;60.40;;;;;;5012840;28;20049;-71